VPCYP ZSPD-ZPPP
Flight info
| Callsign | VPCYP |
|---|---|
| Flight time | N/A |
| Altitude | 34100 |
| Route | NXD81D NXD W131 AKDIM A470 SAGNU W132 OREXA DCT P395 DCT AVDIP W226 DALEP/K0898S1100 W226 IPMUG W611 BIVAV W138 DYG W140 HUY A581 QNX W136 XISLI XISLI2B |
| Aircraft | CL60/M-SBDE1E2E3FGHIJ1J4J5J7M3RWXYZ/LB1V1D1 |
Departure
| Time | 2026-05-05 06:16 |
|---|---|
| Airport | Shanghai Pudong International Airport (ZSPD) |
Arrival
| Time | N/A |
|---|---|
| Airport | Kunming Changshui International Airport (ZPPP) |
| Time | Latitude | Longitude | Altitude | Speed | Heading |
|---|---|---|---|---|---|
| 2026-05-05 06:05 | 31.15400 | 121.79571 | 20 ft | 0 kts | 73° |
| 2026-05-05 06:12 | 31.15401 | 121.79575 | 20 ft | 0 kts | 73° |
| 2026-05-05 06:13 | 31.15402 | 121.79576 | 20 ft | 2 kts | 65° |
| 2026-05-05 06:13 | 31.15421 | 121.79513 | 17 ft | 18 kts | 255° |
| 2026-05-05 06:13 | 31.15402 | 121.79416 | 16 ft | 19 kts | 290° |
| 2026-05-05 06:14 | 31.15497 | 121.79332 | 14 ft | 16 kts | 319° |
| 2026-05-05 06:14 | 31.15537 | 121.79207 | 16 ft | 28 kts | 246° |
| 2026-05-05 06:14 | 31.15556 | 121.79136 | 18 ft | 9 kts | 355° |
| 2026-05-05 06:14 | 31.15744 | 121.79073 | 19 ft | 49 kts | 340° |
| 2026-05-05 06:15 | 31.16111 | 121.78936 | 22 ft | 35 kts | 343° |
| 2026-05-05 06:15 | 31.16185 | 121.78846 | 21 ft | 16 kts | 250° |
| 2026-05-05 06:15 | 31.16133 | 121.78702 | 20 ft | 19 kts | 245° |
| 2026-05-05 06:15 | 31.16037 | 121.78632 | 20 ft | 17 kts | 161° |
| 2026-05-05 06:16 | 31.15986 | 121.78652 | 20 ft | 30 kts | 161° |
| 2026-05-05 06:16 | 31.15488 | 121.78840 | 20 ft | 115 kts | 161° |
| 2026-05-05 06:16 | 31.14570 | 121.79179 | 407 ft | 144 kts | 162° |
| 2026-05-05 06:16 | 31.13661 | 121.79491 | 1244 ft | 142 kts | 167° |
| 2026-05-05 06:17 | 31.12719 | 121.79819 | 2056 ft | 144 kts | 166° |
| 2026-05-05 06:17 | 31.11780 | 121.80119 | 2880 ft | 145 kts | 166° |
| 2026-05-05 06:17 | 31.10832 | 121.80444 | 3680 ft | 146 kts | 164° |
| 2026-05-05 06:17 | 31.09757 | 121.80801 | 4125 ft | 174 kts | 166° |
| 2026-05-05 06:18 | 31.08511 | 121.81166 | 4649 ft | 196 kts | 166° |
| 2026-05-05 06:18 | 31.07092 | 121.81600 | 5075 ft | 230 kts | 163° |
| 2026-05-05 06:18 | 31.05520 | 121.82097 | 6047 ft | 238 kts | 164° |
| 2026-05-05 06:18 | 31.03912 | 121.82649 | 7059 ft | 245 kts | 162° |
| 2026-05-05 06:19 | 31.02269 | 121.83084 | 8066 ft | 247 kts | 179° |
| 2026-05-05 06:19 | 31.00604 | 121.82797 | 9010 ft | 248 kts | 203° |
| 2026-05-05 06:19 | 30.99170 | 121.81709 | 9874 ft | 254 kts | 228° |
| 2026-05-05 06:19 | 30.98264 | 121.79857 | 10379 ft | 275 kts | 253° |
| 2026-05-05 06:20 | 30.97684 | 121.77678 | 11259 ft | 285 kts | 254° |
| 2026-05-05 06:20 | 30.97090 | 121.75491 | 12220 ft | 289 kts | 254° |
| 2026-05-05 06:20 | 30.96491 | 121.73249 | 13180 ft | 291 kts | 257° |
| 2026-05-05 06:20 | 30.96336 | 121.70943 | 14089 ft | 291 kts | 278° |
| 2026-05-05 06:21 | 30.96728 | 121.68638 | 14909 ft | 295 kts | 282° |
| 2026-05-05 06:21 | 30.97172 | 121.66276 | 15743 ft | 299 kts | 282° |
| 2026-05-05 06:21 | 30.97609 | 121.63921 | 16606 ft | 301 kts | 282° |
| 2026-05-05 06:21 | 30.98055 | 121.61512 | 17348 ft | 304 kts | 282° |
| 2026-05-05 06:22 | 30.98497 | 121.59122 | 18090 ft | 308 kts | 281° |
| 2026-05-05 06:22 | 30.98951 | 121.56660 | 18838 ft | 311 kts | 281° |
| 2026-05-05 06:22 | 30.99404 | 121.54202 | 19569 ft | 314 kts | 281° |
| 2026-05-05 06:22 | 30.99866 | 121.51693 | 20275 ft | 318 kts | 281° |
| 2026-05-05 06:23 | 31.00330 | 121.49165 | 20910 ft | 322 kts | 281° |
| 2026-05-05 06:23 | 31.00803 | 121.46592 | 21572 ft | 325 kts | 281° |
| 2026-05-05 06:23 | 31.01277 | 121.44018 | 22204 ft | 329 kts | 281° |
| 2026-05-05 06:23 | 31.01756 | 121.41413 | 22866 ft | 332 kts | 281° |
| 2026-05-05 06:24 | 31.02240 | 121.38779 | 23469 ft | 336 kts | 281° |
| 2026-05-05 06:24 | 31.02733 | 121.36091 | 24127 ft | 337 kts | 280° |
| 2026-05-05 06:24 | 31.03230 | 121.33384 | 24780 ft | 338 kts | 279° |
| 2026-05-05 06:24 | 31.03729 | 121.30658 | 25405 ft | 339 kts | 279° |
| 2026-05-05 06:25 | 31.04223 | 121.27953 | 26017 ft | 339 kts | 279° |
| 2026-05-05 06:25 | 31.04717 | 121.25248 | 26571 ft | 340 kts | 279° |
| 2026-05-05 06:25 | 31.05216 | 121.22508 | 27117 ft | 341 kts | 279° |
| 2026-05-05 06:25 | 31.05704 | 121.19830 | 27617 ft | 342 kts | 278° |
| 2026-05-05 06:26 | 31.06204 | 121.17077 | 28107 ft | 344 kts | 278° |
| 2026-05-05 06:26 | 31.06685 | 121.14377 | 28552 ft | 344 kts | 276° |
| 2026-05-05 06:26 | 31.06730 | 121.11602 | 28966 ft | 341 kts | 258° |
| 2026-05-05 06:26 | 31.06137 | 121.08932 | 29385 ft | 342 kts | 253° |
| 2026-05-05 06:27 | 31.05476 | 121.06283 | 29755 ft | 344 kts | 253° |
| 2026-05-05 06:27 | 31.04140 | 121.00889 | 30464 ft | 347 kts | 253° |
| 2026-05-05 06:27 | 31.03476 | 120.98211 | 30820 ft | 348 kts | 253° |
| 2026-05-05 06:28 | 31.02800 | 120.95488 | 31121 ft | 351 kts | 254° |
| 2026-05-05 06:28 | 31.02123 | 120.92762 | 31385 ft | 353 kts | 253° |
| 2026-05-05 06:28 | 31.01434 | 120.89988 | 31691 ft | 354 kts | 253° |
| 2026-05-05 06:28 | 31.00748 | 120.87234 | 31989 ft | 355 kts | 253° |
| 2026-05-05 06:29 | 31.00063 | 120.84483 | 32253 ft | 357 kts | 253° |
| 2026-05-05 06:29 | 30.99365 | 120.81680 | 32538 ft | 357 kts | 253° |
| 2026-05-05 06:29 | 30.98674 | 120.78912 | 32771 ft | 359 kts | 253° |
| 2026-05-05 06:29 | 30.97970 | 120.76095 | 32995 ft | 361 kts | 253° |
| 2026-05-05 06:30 | 30.97270 | 120.73294 | 33238 ft | 362 kts | 254° |
| 2026-05-05 06:30 | 30.96570 | 120.70496 | 33450 ft | 364 kts | 254° |
| 2026-05-05 06:30 | 30.95849 | 120.67619 | 33653 ft | 366 kts | 254° |
| 2026-05-05 06:30 | 30.95138 | 120.64780 | 33900 ft | 366 kts | 253° |
| 2026-05-05 06:31 | 30.94416 | 120.61906 | 34068 ft | 368 kts | 254° |
| 2026-05-05 06:31 | 30.92952 | 120.56080 | 34081 ft | 380 kts | 254° |
| 2026-05-05 06:32 | 30.91440 | 120.50116 | 34067 ft | 392 kts | 252° |
| 2026-05-05 06:32 | 30.89052 | 120.44297 | 34071 ft | 405 kts | 238° |
| 2026-05-05 06:33 | 30.85205 | 120.39378 | 34062 ft | 420 kts | 223° |
| 2026-05-05 06:33 | 30.80432 | 120.35381 | 34068 ft | 428 kts | 220° |
| 2026-05-05 06:34 | 30.75511 | 120.31333 | 34065 ft | 435 kts | 219° |
| 2026-05-05 06:34 | 30.70515 | 120.27230 | 34065 ft | 440 kts | 219° |
| 2026-05-05 06:35 | 30.65514 | 120.23128 | 34069 ft | 444 kts | 219° |